Portada
METAR-TAF:

METAR-TAF

Aeroports :

Mahiliou, Bielorússia

latitud: 53-57-18N, longitud: 030-05-42E, altitud: 194 m

Observació

L'informe es va fer fa 1 hora i 6 minuts, a les 11:00 UTC
Vent 8 kt del Nord-Oest
Temperatura 24°C
Humitat 61%
Pressió 1013 hPa
Visibilitat 10 km o més
Núvols disperses a una alçada de 4000 ft
Cel ennuvolat

METAR: UMOO 041100Z 32004MPS 9999 SCT040 BKN/// 24/16 Q1013 NOSIG

Hora: 15:06 (12:06 UTC)

Pronòstic

L'informe es va fer fa 1 hora i 6 minuts, a les 11:00 UTC
Pronòstic vàlid del 04 a les 12 UTC al 04 a les 21 UTC
Vent 10 kt del Oest/Nord-Oest
Visibilitat 10 km o més
Cel ennuvolat a una alçada de 2000 ft
Temporalment
l' 04 a les 12 UTC al 04 a les 21 UTC
Vent 14 kt del Nord/Nord-Oest
Visibilitat: 3000 m
Núvols disperses a una alçada de 2500 ft, Cumulonimbus.
xàfecs de pluja

TAF: UMOO 041100Z 0412/0421 30005MPS 9999 BKN020 TEMPO 0412/0421 34007MPS 3000 -SHRA SCT025CB

Observacions i pronòstics meteorològics de més de 4000 aeroports (METAR i TAF).

Les estacions disponibles són els punts grocs i vermells al mapa.

Posi el ratolí al punt desitjat per veure el nom de l'estació.

Feu clic per veure les observacions i els pronòstics meteorològics.

Per canviar el mapa: feu clic els botons verds amb una creu de color negre per apropar; al botó verd amb un guió per allunyar la imatge; o en les fletxes verdes per a mapes adjacents.


METAR-TAF: